METAR Formatted Surface Weather Observation
Issued by NWS

Home | Current Version | Previous Version | Text Only | Print | Product List | Glossary On
Versions: 1 2 3 4 5 6 7 8 9 10 11 12 13 14 15 16 17 18 19
831
SAUS46 KSTO 240958 COR
MTRBLU
METAR KBLU 240952Z AUTO 12003KT 10SM CLR 22/06 A3008 RMK AO2 SLP067
T02220056 TSNO



USA.gov is the U.S. government's official web portal to all federal, state and local government web resources and services.